createdAt,value
2023-11-29T00:00:41.757Z,1.90
2023-11-29T00:03:11.498Z,1.90
2023-11-29T00:05:44.140Z,1.90
2023-11-29T00:08:14.886Z,1.90
2023-11-29T00:10:43.314Z,1.90
2023-11-29T00:13:12.477Z,1.90
2023-11-29T00:15:40.812Z,1.90
2023-11-29T00:18:10.828Z,2.00
2023-11-29T00:20:39.405Z,1.90
2023-11-29T00:23:07.928Z,1.90
2023-11-29T00:25:36.265Z,1.90
2023-11-29T00:28:04.726Z,1.90
2023-11-29T00:30:33.102Z,1.90
2023-11-29T00:33:01.584Z,1.90
2023-11-29T00:35:31.852Z,1.90
2023-11-29T00:38:00.388Z,1.90
2023-11-29T00:40:28.837Z,1.90
2023-11-29T00:43:04.008Z,2.00
2023-11-29T00:45:37.222Z,1.90
2023-11-29T00:48:05.990Z,2.00
2023-11-29T00:50:36.028Z,1.90
2023-11-29T00:53:04.727Z,2.00
2023-11-29T00:55:35.820Z,2.00
2023-11-29T00:58:05.020Z,2.00
2023-11-29T01:00:33.423Z,2.00
2023-11-29T01:03:01.929Z,2.00
2023-11-29T01:05:30.674Z,2.00
2023-11-29T01:08:00.491Z,2.00
2023-11-29T01:10:29.679Z,2.00
2023-11-29T01:12:58.248Z,2.00
2023-11-29T01:15:26.533Z,2.00
2023-11-29T01:17:56.382Z,2.00
2023-11-29T01:20:24.860Z,2.00
2023-11-29T01:22:53.242Z,2.00
2023-11-29T01:25:24.177Z,2.00
2023-11-29T01:27:52.896Z,2.00
2023-11-29T01:30:21.221Z,2.00
2023-11-29T01:32:49.820Z,1.90
2023-11-29T01:35:18.150Z,2.00
2023-11-29T01:37:46.733Z,2.00
2023-11-29T01:40:15.161Z,1.90
2023-11-29T01:42:44.879Z,1.90
2023-11-29T01:45:13.195Z,1.90
2023-11-29T01:47:41.881Z,1.90
2023-11-29T01:50:12.877Z,1.90
2023-11-29T01:52:44.934Z,1.90
2023-11-29T01:55:14.849Z,1.90
2023-11-29T01:57:44.617Z,1.90
2023-11-29T02:00:15.104Z,1.90
2023-11-29T02:02:44.810Z,1.90
2023-11-29T02:05:13.595Z,1.90
2023-11-29T02:07:43.701Z,1.90
2023-11-29T02:10:13.206Z,1.90
2023-11-29T02:12:42.558Z,1.80
2023-11-29T02:15:12.848Z,1.80
2023-11-29T02:17:41.232Z,1.80
2023-11-29T02:20:15.216Z,1.80
2023-11-29T02:23:01.797Z,1.80
2023-11-29T02:25:31.515Z,1.80
2023-11-29T02:28:02.164Z,1.80
2023-11-29T02:30:30.662Z,1.70
2023-11-29T02:32:59.068Z,1.70
2023-11-29T02:35:27.472Z,1.70
2023-11-29T02:37:55.854Z,1.70
2023-11-29T02:40:25.444Z,1.80
2023-11-29T02:42:55.205Z,1.80
2023-11-29T02:45:23.556Z,1.80
2023-11-29T02:47:52.057Z,1.80
2023-11-29T02:50:20.541Z,1.80
2023-11-29T02:52:49.495Z,1.80
2023-11-29T02:55:17.962Z,1.80
2023-11-29T02:57:46.237Z,1.80
2023-11-29T03:00:17.123Z,1.80
2023-11-29T03:02:45.808Z,1.80
2023-11-29T03:05:14.366Z,1.80
2023-11-29T03:07:42.749Z,1.80
2023-11-29T03:10:11.369Z,1.80
2023-11-29T03:12:39.645Z,1.80
2023-11-29T03:15:10.223Z,1.70
2023-11-29T03:17:40.021Z,1.70
2023-11-29T03:20:10.554Z,1.70
2023-11-29T03:22:38.982Z,1.70
2023-11-29T03:25:08.559Z,1.70
2023-11-29T03:27:36.984Z,1.70
2023-11-29T03:30:06.522Z,1.70
2023-11-29T03:32:35.330Z,1.70
2023-11-29T03:35:05.535Z,1.70
2023-11-29T03:37:33.980Z,1.70
2023-11-29T03:40:02.311Z,1.70
2023-11-29T03:42:30.633Z,1.70
2023-11-29T03:44:58.919Z,1.80
2023-11-29T03:47:27.260Z,1.80
2023-11-29T03:49:55.591Z,1.80
2023-11-29T03:52:25.720Z,1.80
2023-11-29T03:54:54.112Z,1.80
2023-11-29T03:57:22.397Z,1.80
2023-11-29T03:59:51.151Z,1.80
2023-11-29T04:02:19.684Z,1.80
2023-11-29T04:04:48.039Z,1.90
2023-11-29T04:07:16.354Z,1.90
2023-11-29T04:09:49.611Z,1.90
2023-11-29T04:12:20.779Z,1.90
2023-11-29T04:14:49.308Z,1.90
2023-11-29T04:17:17.708Z,1.90
2023-11-29T04:19:46.105Z,1.90
2023-11-29T04:22:14.459Z,1.90
2023-11-29T04:24:42.815Z,1.80
2023-11-29T04:27:12.495Z,1.80
2023-11-29T04:29:41.099Z,1.90
2023-11-29T04:32:09.432Z,1.90
2023-11-29T04:34:45.180Z,1.80
2023-11-29T04:37:17.367Z,1.80
2023-11-29T04:39:45.691Z,1.80
2023-11-29T04:42:15.397Z,1.80
2023-11-29T04:44:43.772Z,1.80
2023-11-29T04:47:12.155Z,1.90
2023-11-29T04:49:41.090Z,1.80
2023-11-29T04:52:09.523Z,1.80
2023-11-29T04:54:37.834Z,1.80
2023-11-29T04:57:06.752Z,1.80
2023-11-29T04:59:38.476Z,1.80
2023-11-29T05:02:08.098Z,1.80
2023-11-29T05:04:36.694Z,1.80
2023-11-29T05:07:05.339Z,1.80
2023-11-29T05:09:33.686Z,1.80
2023-11-29T05:12:02.028Z,1.90
2023-11-29T05:14:30.491Z,1.90
2023-11-29T05:17:00.290Z,1.90
2023-11-29T05:19:27.685Z,1.90
2023-11-29T05:21:56.035Z,1.90
2023-11-29T05:24:24.385Z,1.90
2023-11-29T05:26:53.971Z,1.90
2023-11-29T05:29:22.428Z,1.90
2023-11-29T05:31:50.810Z,1.90
2023-11-29T05:34:20.525Z,1.90
2023-11-29T05:36:48.836Z,2.00
2023-11-29T05:39:20.732Z,2.00
2023-11-29T05:41:49.298Z,2.00
2023-11-29T05:44:17.731Z,2.00
2023-11-29T05:46:46.354Z,2.00
2023-11-29T05:49:15.049Z,2.00
2023-11-29T05:51:44.850Z,2.00
2023-11-29T05:54:13.267Z,2.00
2023-11-29T05:56:41.631Z,2.00
2023-11-29T05:59:09.920Z,2.00
2023-11-29T06:01:38.365Z,2.10
2023-11-29T06:04:07.994Z,2.10
2023-11-29T06:06:36.696Z,2.10
2023-11-29T06:09:09.108Z,2.10
2023-11-29T06:11:37.976Z,2.10
2023-11-29T06:14:06.486Z,2.10
2023-11-29T06:16:35.869Z,2.10
2023-11-29T06:19:04.536Z,2.10
2023-11-29T06:21:33.019Z,2.10
2023-11-29T06:24:01.457Z,2.10
2023-11-29T06:26:33.738Z,2.10
2023-11-29T06:29:02.227Z,2.10
2023-11-29T06:31:30.653Z,2.10
2023-11-29T06:33:59.157Z,2.20
2023-11-29T06:36:30.956Z,2.20
2023-11-29T06:39:02.175Z,2.20
2023-11-29T06:41:32.088Z,2.20
2023-11-29T06:44:00.581Z,2.20
2023-11-29T06:46:28.976Z,2.20
2023-11-29T06:48:57.528Z,2.20
2023-11-29T06:51:25.917Z,2.30
2023-11-29T06:53:54.323Z,2.20
2023-11-29T06:56:22.741Z,2.30
2023-11-29T06:58:52.723Z,2.30
2023-11-29T07:01:21.276Z,2.30
2023-11-29T07:03:50.112Z,2.30
2023-11-29T07:06:23.612Z,2.30
2023-11-29T07:08:52.318Z,2.30
2023-11-29T07:11:20.858Z,2.30
2023-11-29T07:13:49.403Z,2.40
2023-11-29T07:16:19.286Z,2.40
2023-11-29T07:18:47.671Z,2.40
2023-11-29T07:21:16.115Z,2.40
2023-11-29T07:23:44.503Z,2.40
2023-11-29T07:26:12.913Z,2.40
2023-11-29T07:28:41.780Z,2.40
2023-11-29T07:31:11.137Z,2.50
2023-11-29T07:33:40.964Z,2.50
2023-11-29T07:36:13.101Z,2.50
2023-11-29T07:38:42.511Z,2.50
2023-11-29T07:41:11.892Z,2.50
2023-11-29T07:43:40.312Z,2.50
2023-11-29T07:46:11.092Z,2.50
2023-11-29T07:48:41.126Z,2.50
2023-11-29T07:51:09.443Z,2.50
2023-11-29T07:53:37.827Z,2.50
2023-11-29T07:56:08.552Z,2.50
2023-11-29T07:58:37.472Z,2.60
2023-11-29T08:01:06.366Z,2.60
2023-11-29T08:03:35.701Z,2.60
2023-11-29T08:06:06.007Z,2.60
2023-11-29T08:08:35.407Z,2.60
2023-11-29T08:11:04.018Z,2.60
2023-11-29T08:13:33.443Z,2.60
2023-11-29T08:16:02.006Z,2.70
2023-11-29T08:18:30.419Z,2.70
2023-11-29T08:20:59.157Z,2.60
2023-11-29T08:23:29.098Z,2.70
2023-11-29T08:25:57.435Z,2.70
2023-11-29T08:28:26.169Z,2.70
2023-11-29T08:30:54.606Z,2.70
2023-11-29T08:33:23.020Z,2.70
2023-11-29T08:35:51.692Z,2.70
2023-11-29T08:38:20.056Z,2.70
2023-11-29T08:40:52.576Z,2.70
2023-11-29T08:43:23.953Z,2.70
2023-11-29T08:45:57.856Z,2.70
2023-11-29T08:48:27.274Z,2.70
2023-11-29T08:50:56.349Z,2.80
2023-11-29T08:53:33.271Z,2.80
2023-11-29T08:56:20.242Z,2.80
2023-11-29T08:58:49.807Z,2.80
2023-11-29T09:01:21.911Z,2.80
2023-11-29T09:03:51.342Z,2.80
2023-11-29T09:06:19.924Z,2.80
2023-11-29T09:08:49.396Z,2.80
2023-11-29T09:11:19.434Z,2.80
2023-11-29T09:13:49.878Z,2.80
2023-11-29T09:16:19.870Z,2.80
2023-11-29T09:18:49.266Z,2.80
2023-11-29T09:21:17.606Z,2.90
2023-11-29T09:23:46.287Z,2.90
2023-11-29T09:26:16.364Z,2.90
2023-11-29T09:28:46.185Z,2.90
2023-11-29T09:31:15.047Z,2.90
2023-11-29T09:33:43.746Z,2.90
2023-11-29T09:36:14.044Z,2.90
2023-11-29T09:38:42.515Z,2.90
2023-11-29T09:41:12.636Z,2.90
2023-11-29T09:43:42.534Z,2.90
2023-11-29T09:46:13.410Z,3.00
2023-11-29T09:48:43.611Z,3.00
2023-11-29T09:51:12.240Z,2.90
2023-11-29T09:53:40.792Z,3.00
2023-11-29T09:56:10.975Z,3.00
2023-11-29T09:58:39.631Z,3.00
2023-11-29T10:01:08.331Z,3.00
2023-11-29T10:03:38.569Z,3.00
2023-11-29T10:06:07.959Z,3.00
2023-11-29T10:08:37.235Z,3.00
2023-11-29T10:11:07.915Z,3.00
2023-11-29T10:13:36.742Z,3.00
2023-11-29T10:16:05.669Z,3.00
2023-11-29T10:18:34.563Z,3.00
2023-11-29T10:21:09.245Z,3.10
2023-11-29T10:23:41.292Z,3.10
2023-11-29T10:26:10.112Z,3.10
2023-11-29T10:28:40.766Z,3.10
2023-11-29T10:31:10.793Z,3.10
2023-11-29T10:33:42.385Z,3.10
2023-11-29T10:36:13.546Z,3.10
2023-11-29T10:38:49.422Z,3.10
2023-11-29T10:41:24.878Z,3.10
2023-11-29T10:44:03.077Z,3.10
2023-11-29T10:46:37.688Z,3.10
2023-11-29T10:49:14.970Z,3.00
2023-11-29T10:51:47.948Z,3.00
2023-11-29T10:54:39.378Z,2.90
2023-11-29T10:57:11.364Z,3.00
2023-11-29T10:59:44.949Z,2.90
2023-11-29T11:02:13.631Z,2.90
2023-11-29T11:04:46.795Z,2.90
2023-11-29T11:07:42.068Z,2.90
2023-11-29T11:10:13.634Z,2.90
2023-11-29T11:12:43.366Z,3.00
2023-11-29T11:15:16.412Z,3.00
2023-11-29T11:17:47.081Z,3.10
2023-11-29T11:20:16.353Z,3.10
2023-11-29T11:22:50.693Z,3.10
2023-11-29T11:25:19.467Z,3.10
2023-11-29T11:27:50.606Z,3.10
2023-11-29T11:30:26.601Z,3.20
2023-11-29T11:32:57.876Z,3.10
2023-11-29T11:35:37.814Z,3.20
2023-11-29T11:38:10.645Z,3.20
2023-11-29T11:40:41.919Z,3.20
2023-11-29T11:43:12.762Z,3.20
2023-11-29T11:45:47.201Z,3.20
2023-11-29T11:48:15.835Z,3.20
2023-11-29T11:50:44.457Z,3.30
2023-11-29T11:53:16.175Z,3.30
2023-11-29T11:55:48.783Z,3.30
2023-11-29T11:58:19.619Z,3.40
2023-11-29T12:00:49.536Z,3.40
2023-11-29T12:03:19.124Z,3.50
2023-11-29T12:05:47.750Z,3.50
2023-11-29T12:08:18.034Z,3.50
2023-11-29T12:10:46.545Z,3.50
2023-11-29T12:13:15.825Z,3.50
2023-11-29T12:15:44.387Z,3.50
2023-11-29T12:18:16.847Z,3.50
2023-11-29T12:20:45.829Z,3.50
2023-11-29T12:23:16.208Z,3.50
2023-11-29T12:25:56.352Z,3.50
2023-11-29T12:28:27.096Z,3.50
2023-11-29T12:30:56.632Z,3.50
2023-11-29T12:33:26.984Z,3.50
2023-11-29T12:35:55.670Z,3.50
2023-11-29T12:38:24.155Z,3.40
2023-11-29T12:40:53.914Z,3.50
2023-11-29T12:43:22.356Z,3.50
2023-11-29T12:45:50.883Z,3.50
2023-11-29T12:48:19.788Z,3.40
2023-11-29T12:50:48.257Z,3.40
2023-11-29T12:53:16.892Z,3.40
2023-11-29T12:55:45.290Z,3.40
2023-11-29T12:58:15.228Z,3.40
2023-11-29T13:00:46.531Z,3.40
2023-11-29T13:03:15.265Z,3.40
2023-11-29T13:05:44.528Z,3.40
2023-11-29T13:08:12.959Z,3.40
2023-11-29T13:10:41.379Z,3.40
2023-11-29T13:13:10.966Z,3.40
2023-11-29T13:15:40.842Z,3.40
2023-11-29T13:18:09.512Z,3.40
2023-11-29T13:20:37.993Z,3.40
2023-11-29T13:23:06.591Z,3.50
2023-11-29T13:25:35.152Z,3.50
2023-11-29T13:28:04.673Z,3.50
2023-11-29T13:30:32.938Z,3.50
2023-11-29T13:33:03.014Z,3.60
2023-11-29T13:35:31.477Z,3.60
2023-11-29T13:38:00.145Z,3.60
2023-11-29T13:40:28.663Z,3.60
2023-11-29T13:42:57.213Z,3.60
2023-11-29T13:45:25.850Z,3.60
2023-11-29T13:47:54.244Z,3.60
2023-11-29T13:50:24.316Z,3.70
2023-11-29T13:52:52.730Z,3.70
2023-11-29T13:55:21.359Z,3.70
2023-11-29T13:57:50.102Z,3.70
2023-11-29T14:00:20.245Z,3.70
2023-11-29T14:02:49.096Z,3.70
2023-11-29T14:05:17.842Z,3.80
2023-11-29T14:07:47.741Z,3.80
2023-11-29T14:10:16.388Z,3.80
2023-11-29T14:12:46.465Z,3.80
2023-11-29T14:15:16.228Z,3.80
2023-11-29T14:17:44.876Z,3.80
2023-11-29T14:20:14.181Z,3.80
2023-11-29T14:22:48.692Z,3.90
2023-11-29T14:25:19.044Z,3.90
2023-11-29T14:27:54.366Z,3.90
2023-11-29T14:30:26.221Z,3.90
2023-11-29T14:32:54.873Z,3.90
2023-11-29T14:35:23.287Z,3.90
2023-11-29T14:37:54.841Z,3.90
2023-11-29T14:40:24.658Z,3.90
2023-11-29T14:42:53.047Z,3.90
2023-11-29T14:45:21.457Z,4.00
2023-11-29T14:47:50.008Z,4.00
2023-11-29T14:50:18.679Z,4.00
2023-11-29T14:52:47.179Z,4.00
2023-11-29T14:55:43.216Z,4.00
2023-11-29T14:58:12.016Z,4.00
2023-11-29T15:00:40.384Z,4.00
2023-11-29T15:03:08.908Z,4.00
2023-11-29T15:05:37.549Z,4.00
2023-11-29T15:08:06.595Z,4.00
2023-11-29T15:10:35.188Z,4.00
2023-11-29T15:13:11.597Z,4.00
2023-11-29T15:15:40.060Z,3.90
2023-11-29T15:18:08.624Z,3.90
2023-11-29T15:20:36.986Z,4.00
2023-11-29T15:23:05.712Z,3.90
2023-11-29T15:25:34.153Z,4.00
2023-11-29T15:28:02.960Z,3.90
2023-11-29T15:30:32.831Z,3.90
2023-11-29T15:33:01.828Z,3.90
2023-11-29T15:35:31.669Z,3.90
2023-11-29T15:38:01.618Z,3.90
2023-11-29T15:40:56.931Z,3.90
2023-11-29T15:43:25.302Z,3.90
2023-11-29T15:45:55.302Z,3.90
2023-11-29T15:48:23.866Z,3.90
2023-11-29T15:50:52.322Z,3.80
2023-11-29T15:53:20.586Z,3.80
2023-11-29T15:55:52.429Z,3.80
2023-11-29T15:58:23.944Z,3.80
2023-11-29T16:00:52.278Z,3.80
2023-11-29T16:03:22.127Z,3.80
2023-11-29T16:05:53.308Z,3.80
2023-11-29T16:08:23.211Z,3.80
2023-11-29T16:10:51.476Z,3.70
2023-11-29T16:13:19.725Z,3.70
2023-11-29T16:15:48.067Z,3.70
2023-11-29T16:18:16.687Z,3.70
2023-11-29T16:20:48.127Z,3.70
2023-11-29T16:23:16.657Z,3.70
2023-11-29T16:25:44.863Z,3.70
2023-11-29T16:28:13.209Z,3.70
2023-11-29T16:30:41.578Z,3.70
2023-11-29T16:33:11.682Z,3.60
2023-11-29T16:35:40.054Z,3.60
2023-11-29T16:38:10.688Z,3.60
2023-11-29T16:40:38.926Z,3.60
2023-11-29T16:43:07.178Z,3.60
2023-11-29T16:45:35.527Z,3.60
2023-11-29T16:48:05.344Z,3.60
2023-11-29T16:50:35.906Z,3.60
2023-11-29T16:53:12.278Z,3.60
2023-11-29T16:55:48.574Z,3.60
2023-11-29T16:58:16.948Z,3.60
2023-11-29T17:00:47.226Z,3.60
2023-11-29T17:03:17.589Z,3.60
2023-11-29T17:05:46.662Z,3.60
2023-11-29T17:08:15.101Z,3.60
2023-11-29T17:10:43.413Z,3.50
2023-11-29T17:13:13.387Z,3.60
2023-11-29T17:15:44.272Z,3.50
2023-11-29T17:18:12.864Z,3.50
2023-11-29T17:20:42.109Z,3.50
2023-11-29T17:23:10.397Z,3.50
2023-11-29T17:25:38.773Z,3.50
2023-11-29T17:28:07.056Z,3.50
2023-11-29T17:30:36.724Z,3.50
2023-11-29T17:33:05.178Z,3.50
2023-11-29T17:35:33.568Z,3.40
2023-11-29T17:38:01.988Z,3.40
2023-11-29T17:40:30.430Z,3.40
2023-11-29T17:42:58.696Z,3.40
2023-11-29T17:45:26.970Z,3.40
2023-11-29T17:47:57.431Z,3.40
2023-11-29T17:50:26.282Z,3.40
2023-11-29T17:52:54.539Z,3.40
2023-11-29T17:55:22.766Z,3.30
2023-11-29T17:57:51.056Z,3.30
2023-11-29T18:00:22.030Z,3.30
2023-11-29T18:02:50.345Z,3.30
2023-11-29T18:05:20.097Z,3.30
2023-11-29T18:07:51.456Z,3.30
2023-11-29T18:10:19.951Z,3.30
2023-11-29T18:12:48.207Z,3.30
2023-11-29T18:15:16.503Z,3.30
2023-11-29T18:17:44.891Z,3.30
2023-11-29T18:20:13.786Z,3.30
2023-11-29T18:22:45.145Z,3.30
2023-11-29T18:25:13.526Z,3.20
2023-11-29T18:27:44.474Z,3.20
2023-11-29T18:30:14.275Z,3.20
2023-11-29T18:32:42.828Z,3.20
2023-11-29T18:35:11.455Z,3.20
2023-11-29T18:37:39.711Z,3.20
2023-11-29T18:40:11.630Z,3.20
2023-11-29T18:42:40.056Z,3.20
2023-11-29T18:45:16.274Z,3.20
2023-11-29T18:47:44.988Z,3.20
2023-11-29T18:50:13.699Z,3.10
2023-11-29T18:52:42.011Z,3.10
2023-11-29T18:55:12.050Z,3.10
2023-11-29T18:57:43.571Z,3.10
2023-11-29T19:00:14.747Z,3.10
2023-11-29T19:02:46.208Z,3.00
2023-11-29T19:05:16.663Z,3.10
2023-11-29T19:08:10.608Z,3.10
2023-11-29T19:10:49.651Z,3.00
2023-11-29T19:13:30.100Z,3.00
2023-11-29T19:15:58.537Z,3.00
2023-11-29T19:18:27.012Z,3.00
2023-11-29T19:21:05.205Z,3.00
2023-11-29T19:23:38.233Z,3.00
2023-11-29T19:26:16.560Z,3.00
2023-11-29T19:28:44.908Z,3.00
2023-11-29T19:31:15.167Z,3.00
2023-11-29T19:33:57.777Z,3.00
2023-11-29T19:36:28.064Z,3.00
2023-11-29T19:38:56.381Z,2.90
2023-11-29T19:41:35.809Z,3.00
2023-11-29T19:44:04.615Z,3.00
2023-11-29T19:46:32.990Z,3.00
2023-11-29T19:49:01.430Z,3.00
2023-11-29T19:51:29.698Z,3.00
2023-11-29T19:54:00.935Z,2.90
2023-11-29T19:56:41.600Z,2.90
2023-11-29T19:59:19.920Z,2.90
2023-11-29T20:01:48.598Z,2.90
2023-11-29T20:04:29.645Z,2.90
2023-11-29T20:07:01.460Z,2.90
2023-11-29T20:09:34.289Z,2.90
2023-11-29T20:12:05.946Z,2.90
2023-11-29T20:14:41.861Z,2.90
2023-11-29T20:17:19.006Z,2.90
2023-11-29T20:20:04.181Z,2.90
2023-11-29T20:23:01.581Z,2.90
2023-11-29T20:25:31.114Z,2.80
2023-11-29T20:28:01.065Z,2.80
2023-11-29T20:30:35.766Z,2.80
2023-11-29T20:33:05.355Z,2.80
2023-11-29T20:35:40.075Z,2.80
2023-11-29T20:38:09.084Z,2.80
2023-11-29T20:40:44.748Z,2.80
2023-11-29T20:43:17.753Z,2.80
2023-11-29T20:45:48.084Z,2.70
2023-11-29T20:48:17.532Z,2.70
2023-11-29T20:51:21.417Z,2.70
2023-11-29T21:07:00.784Z,2.60
2023-11-29T21:09:29.654Z,2.60
2023-11-29T21:11:58.381Z,2.60
2023-11-29T21:14:26.745Z,2.60
2023-11-29T21:16:55.401Z,2.60
2023-11-29T21:19:23.751Z,2.60
2023-11-29T21:21:51.973Z,2.60
2023-11-29T21:24:21.596Z,2.60
2023-11-29T21:26:49.851Z,2.60
2023-11-29T21:29:18.042Z,2.60
2023-11-29T21:31:46.197Z,2.60
2023-11-29T21:34:14.348Z,2.60
2023-11-29T21:36:43.463Z,2.60
2023-11-29T21:39:11.635Z,2.60
2023-11-29T21:41:41.270Z,2.50
2023-11-29T21:44:09.428Z,2.50
2023-11-29T21:46:37.727Z,2.50
2023-11-29T21:49:06.042Z,2.50
2023-11-29T21:51:35.020Z,2.50
2023-11-29T21:54:03.225Z,2.40
2023-11-29T21:56:31.428Z,2.40
2023-11-29T21:59:00.929Z,2.40
2023-11-29T22:01:29.209Z,2.30
2023-11-29T22:03:57.469Z,2.30
2023-11-29T22:06:27.038Z,2.30
2023-11-29T22:08:55.281Z,2.30
2023-11-29T22:11:23.600Z,2.20
2023-11-29T22:13:51.749Z,2.20
2023-11-29T22:16:25.312Z,2.20
2023-11-29T22:18:53.807Z,2.20
2023-11-29T22:21:24.219Z,2.20
2023-11-29T22:23:52.528Z,2.20
2023-11-29T22:26:20.765Z,2.20
2023-11-29T22:28:48.947Z,2.20
2023-11-29T22:31:17.119Z,2.20
2023-11-29T22:33:46.876Z,2.20
2023-11-29T22:36:17.057Z,2.20
2023-11-29T22:38:45.880Z,2.20
2023-11-29T22:41:25.118Z,2.20
2023-11-29T22:43:54.760Z,2.20
2023-11-29T22:46:24.969Z,2.20
2023-11-29T22:48:55.340Z,2.30
2023-11-29T22:51:26.187Z,2.30
2023-11-29T22:53:54.463Z,2.30
2023-11-29T22:56:22.798Z,2.30
2023-11-29T22:58:51.021Z,2.30
2023-11-29T23:01:19.227Z,2.30
2023-11-29T23:03:47.503Z,2.30
2023-11-29T23:06:17.097Z,2.30
2023-11-29T23:08:45.286Z,2.30
2023-11-29T23:11:13.577Z,2.30
2023-11-29T23:13:41.671Z,2.30
2023-11-29T23:16:11.356Z,2.30
2023-11-29T23:18:39.533Z,2.30
2023-11-29T23:21:09.539Z,2.30
2023-11-29T23:23:40.259Z,2.30
2023-11-29T23:26:08.703Z,2.30
2023-11-29T23:28:36.866Z,2.30
2023-11-29T23:31:05.563Z,2.30
2023-11-29T23:33:33.839Z,2.30
2023-11-29T23:36:02.353Z,2.30
2023-11-29T23:38:30.607Z,2.30
2023-11-29T23:41:00.115Z,2.30
2023-11-29T23:43:28.275Z,2.40
2023-11-29T23:45:56.431Z,2.40
2023-11-29T23:48:24.789Z,2.40
2023-11-29T23:50:53.004Z,2.40
2023-11-29T23:53:21.142Z,2.40
2023-11-29T23:55:49.316Z,2.40
2023-11-29T23:58:18.878Z,2.40
